Time;durP1;ratioP1;P1;durP2;ratioP2;P2;SDS_P1;SDS_P2;PMS_P1;PMS_P2;Temp;Humidity;BMP_temperature;BMP_pressure;BME280_temperature;BME280_humidity;BME280_pressure;Samples;Min_cycle;Max_cycle;Signal;HPM_P1;HPM_P2
2023/04/30 00:00:45;;;;;;;23.40;14.27;;;;;;;19.09;46.88;102488.66;5024384;28;20049;-35
2023/04/30 00:03:11;;;;;;;22.30;13.70;;;;;;;19.10;46.67;102497.59;5018084;28;20068;-34
2023/04/30 00:05:38;;;;;;;21.77;13.35;;;;;;;19.07;46.67;102496.00;5023582;28;20046;-34
2023/04/30 00:08:05;;;;;;;22.17;13.63;;;;;;;19.06;47.02;102496.13;5021722;28;20057;-34
2023/04/30 00:10:31;;;;;;;21.15;12.13;;;;;;;19.06;47.44;102490.75;5027168;28;20342;-33
2023/04/30 00:12:58;;;;;;;21.05;13.52;;;;;;;19.04;47.05;102496.22;5021224;28;20560;-34
2023/04/30 00:15:25;;;;;;;22.10;13.48;;;;;;;19.04;46.95;102496.22;5018573;28;20060;-34
2023/04/30 00:17:52;;;;;;;17.70;11.77;;;;;;;19.02;47.12;102484.75;5019514;28;20155;-34
2023/04/30 00:20:18;;;;;;;18.95;12.43;;;;;;;19.03;47.24;102488.28;5024789;28;20048;-34
2023/04/30 00:22:45;;;;;;;20.23;12.82;;;;;;;19.01;47.36;102487.53;5017725;28;20135;-34
2023/04/30 00:25:12;;;;;;;19.25;12.70;;;;;;;18.99;46.66;102490.38;5023476;28;20141;-33
2023/04/30 00:27:38;;;;;;;19.05;12.20;;;;;;;18.98;47.30;102494.03;5022687;28;20389;-34
2023/04/30 00:30:06;;;;;;;22.13;12.90;;;;;;;18.98;47.27;102494.03;5024857;28;20539;-36
2023/04/30 00:32:33;;;;;;;17.25;10.82;;;;;;;18.97;47.12;102500.34;5020863;28;20505;-34
2023/04/30 00:35:00;;;;;;;18.05;11.75;;;;;;;18.96;47.00;102502.19;5021760;28;20384;-35
2023/04/30 00:37:26;;;;;;;21.67;12.93;;;;;;;18.95;46.83;102503.19;5022532;28;20330;-35
2023/04/30 00:39:53;;;;;;;22.10;12.20;;;;;;;18.93;47.10;102502.44;5019171;28;20041;-34
2023/04/30 00:42:20;;;;;;;18.73;11.85;;;;;;;18.93;47.73;102507.78;5023169;28;20077;-34
2023/04/30 00:44:46;;;;;;;17.48;11.32;;;;;;;18.92;47.25;102513.31;5021103;28;20515;-34
2023/04/30 00:47:13;;;;;;;17.25;11.43;;;;;;;18.90;47.48;102510.75;5020875;28;20259;-35
2023/04/30 00:49:39;;;;;;;19.27;11.73;;;;;;;18.90;47.25;102517.97;5017915;28;20653;-36
2023/04/30 00:52:06;;;;;;;18.90;11.65;;;;;;;18.89;47.48;102526.97;5019647;28;20126;-34
2023/04/30 00:54:33;;;;;;;18.30;11.43;;;;;;;18.88;47.03;102519.88;5023596;28;20051;-34
2023/04/30 00:57:00;;;;;;;18.70;10.98;;;;;;;18.87;47.20;102512.81;5025728;28;20053;-34
2023/04/30 00:59:28;;;;;;;15.80;10.23;;;;;;;18.86;47.69;102519.16;5023247;28;20394;-35
2023/04/30 01:01:55;;;;;;;17.33;11.23;;;;;;;18.85;47.46;102520.13;5025853;28;20128;-35
2023/04/30 01:04:23;;;;;;;16.13;10.73;;;;;;;18.84;47.25;102527.31;5023482;28;20357;-37
2023/04/30 01:06:50;;;;;;;18.27;10.77;;;;;;;18.83;47.50;102519.41;5021405;28;20600;-34
2023/04/30 01:09:17;;;;;;;16.30;10.18;;;;;;;18.83;47.36;102522.09;5020448;28;20045;-35
2023/04/30 01:11:55;;;;;;;17.33;10.55;;;;;;;18.81;47.55;102519.50;5023240;28;20045;-34
2023/04/30 01:14:49;;;;;;;15.18;10.23;;;;;;;18.79;47.53;102516.09;5022222;28;20144;-34
2023/04/30 01:17:27;;;;;;;15.90;9.95;;;;;;;18.80;47.43;102514.25;5015140;28;20184;-36
2023/04/30 01:19:55;;;;;;;15.75;9.68;;;;;;;18.80;47.59;102522.31;5020848;28;20046;-34
2023/04/30 01:22:27;;;;;;;14.68;9.50;;;;;;;18.77;47.71;102512.66;5016238;28;20049;-34
2023/04/30 01:25:13;;;;;;;16.38;9.63;;;;;;;18.77;47.64;102509.09;5019421;28;20148;-35
2023/04/30 01:28:10;;;;;;;15.60;9.98;;;;;;;18.75;47.28;102519.97;5018790;28;20076;-34
2023/04/30 01:30:39;;;;;;;16.17;9.93;;;;;;;18.74;47.27;102519.13;5019471;28;20045;-34
2023/04/30 01:33:06;;;;;;;12.25;8.77;;;;;;;18.74;47.31;102518.28;5018896;28;20051;-34
2023/04/30 01:35:49;;;;;;;15.27;9.95;;;;;;;18.70;47.80;102517.66;5020308;28;20053;-34
2023/04/30 01:38:48;;;;;;;15.80;9.83;;;;;;;18.70;47.35;102517.66;5018902;28;20340;-34
2023/04/30 01:41:30;;;;;;;15.18;9.48;;;;;;;18.70;47.81;102512.28;5021303;28;20049;-35
2023/04/30 01:44:24;;;;;;;14.30;9.10;;;;;;;18.68;47.77;102519.56;5017526;28;20056;-35
2023/04/30 01:47:08;;;;;;;15.43;8.77;;;;;;;18.67;47.36;102519.69;5020473;28;20238;-34
2023/04/30 01:49:40;;;;;;;13.60;9.00;;;;;;;18.67;47.22;102522.38;5018812;28;20037;-34
2023/04/30 01:52:31;;;;;;;11.98;8.43;;;;;;;18.64;47.56;102515.38;5017682;28;20056;-35
2023/04/30 01:55:21;;;;;;;14.25;8.85;;;;;;;18.62;47.98;102511.97;5018114;28;20050;-34
2023/04/30 01:58:11;;;;;;;14.10;8.85;;;;;;;18.61;47.64;102517.44;5019847;28;20053;-34
2023/04/30 02:00:37;;;;;;;14.20;9.05;;;;;;;18.62;47.76;102519.19;5019935;28;20076;-34
2023/04/30 02:03:04;;;;;;;13.93;8.52;;;;;;;18.60;47.55;102518.44;5018227;28;20049;-34
2023/04/30 02:05:31;;;;;;;14.82;8.75;;;;;;;18.60;47.57;102526.47;5020622;28;20430;-34
2023/04/30 02:07:57;;;;;;;11.98;7.82;;;;;;;18.58;47.52;102531.97;5019016;28;20049;-35
2023/04/30 02:10:26;;;;;;;12.73;8.45;;;;;;;18.57;48.01;102527.56;5017553;28;20125;-34
2023/04/30 02:12:52;;;;;;;13.88;7.93;;;;;;;18.56;47.62;102531.22;5015484;28;20057;-34
2023/04/30 02:15:19;;;;;;;11.68;7.88;;;;;;;18.56;47.71;102535.75;5019041;28;20052;-36
2023/04/30 02:17:46;;;;;;;12.52;8.02;;;;;;;18.55;47.69;102526.84;5014054;28;20140;-34
2023/04/30 02:20:12;;;;;;;10.95;7.28;;;;;;;18.54;47.46;102525.13;5016170;28;20097;-34
2023/04/30 02:22:39;;;;;;;12.23;7.97;;;;;;;18.53;47.84;102535.97;5016030;28;20053;-34
2023/04/30 02:25:06;;;;;;;12.93;8.18;;;;;;;18.52;47.82;102529.75;5016528;28;20056;-34
2023/04/30 02:27:33;;;;;;;12.85;7.63;;;;;;;18.50;47.75;102521.81;5018051;28;20052;-34
2023/04/30 02:30:00;;;;;;;11.63;7.80;;;;;;;18.50;47.75;102521.81;5025340;28;20049;-34
2023/04/30 02:32:26;;;;;;;11.60;7.60;;;;;;;18.50;48.00;102523.66;5021613;28;20096;-35
2023/04/30 02:34:53;;;;;;;11.32;7.20;;;;;;;18.49;47.71;102524.59;5022972;28;20057;-34
2023/04/30 02:37:19;;;;;;;13.55;7.97;;;;;;;18.48;47.58;102517.53;5023159;28;20149;-34
2023/04/30 02:39:46;;;;;;;13.88;8.25;;;;;;;18.47;47.90;102507.75;5021149;28;20049;-34
2023/04/30 02:42:13;;;;;;;11.48;7.47;;;;;;;18.46;47.86;102508.75;5017688;28;20136;-34
2023/04/30 02:44:40;;;;;;;11.60;7.03;;;;;;;18.45;47.87;102501.63;5022237;28;21599;-34
2023/04/30 02:47:06;;;;;;;10.52;6.93;;;;;;;18.45;47.48;102493.59;5018295;28;20053;-35
2023/04/30 02:49:33;;;;;;;10.45;6.35;;;;;;;18.43;47.95;102496.41;5020753;28;20576;-35
2023/04/30 02:51:59;;;;;;;9.23;6.43;;;;;;;18.42;47.50;102502.75;5020127;28;20065;-34
2023/04/30 02:54:26;;;;;;;11.32;6.85;;;;;;;18.42;47.91;102505.44;5018894;28;20053;-36
2023/04/30 02:56:53;;;;;;;9.50;6.40;;;;;;;18.40;47.78;102507.34;5018374;28;20058;-35
2023/04/30 02:59:19;;;;;;;11.82;6.80;;;;;;;18.40;48.04;102502.00;5019323;28;20042;-34
2023/04/30 03:01:46;;;;;;;13.02;6.72;;;;;;;18.40;47.75;102503.81;5018393;28;20547;-34
2023/04/30 03:04:12;;;;;;;9.40;6.03;;;;;;;18.39;47.86;102507.50;5019541;28;20041;-35
2023/04/30 03:06:39;;;;;;;9.73;6.35;;;;;;;18.38;47.98;102509.31;5020593;28;20106;-34
2023/04/30 03:09:07;;;;;;;8.80;5.70;;;;;;;18.37;47.50;102514.78;5020290;28;20092;-35
2023/04/30 03:11:36;;;;;;;9.38;5.70;;;;;;;18.37;47.92;102510.28;5020250;28;20524;-35
2023/04/30 03:14:03;;;;;;;9.80;5.82;;;;;;;18.36;47.77;102510.41;5018992;28;20068;-34
2023/04/30 03:16:30;;;;;;;9.32;5.63;;;;;;;18.34;47.92;102507.84;5015972;28;20061;-34
2023/04/30 03:18:57;;;;;;;8.10;5.47;;;;;;;18.35;47.84;102511.38;5016382;28;20065;-34
2023/04/30 03:21:23;;;;;;;9.60;6.15;;;;;;;18.33;47.85;102514.19;5017839;28;20041;-34
2023/04/30 03:23:50;;;;;;;8.68;5.93;;;;;;;18.32;47.59;102507.09;5016974;28;20053;-35
2023/04/30 03:26:17;;;;;;;9.90;5.95;;;;;;;18.31;48.18;102510.75;5017154;28;20113;-34
2023/04/30 03:28:43;;;;;;;7.88;5.38;;;;;;;18.30;47.97;102505.50;5021295;28;20433;-34
2023/04/30 03:31:10;;;;;;;7.43;5.10;;;;;;;18.31;47.70;102509.88;5017624;28;20048;-34
2023/04/30 03:33:36;;;;;;;10.20;6.03;;;;;;;18.28;48.10;102502.91;5018423;28;20136;-34
2023/04/30 03:36:03;;;;;;;9.13;6.00;;;;;;;18.28;47.66;102496.69;5016818;28;20100;-35
2023/04/30 03:38:30;;;;;;;7.97;5.32;;;;;;;18.25;47.62;102495.97;5020754;28;21332;-35
2023/04/30 03:40:56;;;;;;;8.70;5.18;;;;;;;18.26;48.12;102499.50;5020278;28;20161;-35
2023/04/30 03:43:23;;;;;;;8.68;5.38;;;;;;;18.24;47.63;102498.75;5021266;28;20163;-36
2023/04/30 03:45:49;;;;;;;8.90;5.22;;;;;;;18.23;48.00;102503.25;5024533;28;20067;-35
2023/04/30 03:48:16;;;;;;;7.63;5.20;;;;;;;18.23;48.23;102495.22;5020502;28;20520;-42
2023/04/30 03:50:44;;;;;;;7.38;4.63;;;;;;;18.23;48.09;102497.91;5018539;28;20041;-34
2023/04/30 03:53:10;;;;;;;7.68;5.35;;;;;;;18.21;47.68;102497.16;5015892;28;20053;-34
2023/04/30 03:55:37;;;;;;;6.68;4.45;;;;;;;18.23;48.02;102492.53;5021057;28;20054;-34
2023/04/30 03:58:04;;;;;;;7.45;4.90;;;;;;;18.22;47.95;102487.28;5016533;28;20053;-35
2023/04/30 04:00:30;;;;;;;8.68;5.75;;;;;;;18.22;47.56;102489.97;5018758;28;20048;-35
2023/04/30 04:02:58;;;;;;;7.85;4.72;;;;;;;18.21;48.03;102488.22;5020067;28;20049;-34
2023/04/30 04:05:25;;;;;;;6.85;4.50;;;;;;;18.20;48.04;102484.69;5025015;28;20081;-34
2023/04/30 04:07:52;;;;;;;6.22;4.40;;;;;;;18.19;47.93;102483.00;5019539;28;20064;-35
2023/04/30 04:10:18;;;;;;;7.10;4.63;;;;;;;18.19;47.86;102491.03;5019705;28;20069;-35
2023/04/30 04:12:45;;;;;;;7.55;4.22;;;;;;;18.19;48.17;102491.03;5019665;28;20393;-33
2023/04/30 04:15:12;;;;;;;7.25;4.60;;;;;;;18.18;48.04;102489.34;5021711;28;20072;-34
2023/04/30 04:17:39;;;;;;;7.93;4.80;;;;;;;18.18;47.73;102492.03;5022712;28;20435;-34
2023/04/30 04:20:07;;;;;;;7.55;5.15;;;;;;;18.17;47.80;102484.94;5021702;28;20060;-35
2023/04/30 04:22:33;;;;;;;7.10;4.45;;;;;;;18.17;47.69;102497.47;5018927;28;20445;-34
2023/04/30 04:25:03;;;;;;;6.43;4.00;;;;;;;18.16;47.58;102488.56;5023747;28;20075;-34
2023/04/30 04:27:29;;;;;;;6.60;4.18;;;;;;;18.16;47.91;102493.09;5020873;28;20456;-34
2023/04/30 04:29:56;;;;;;;6.68;4.30;;;;;;;18.15;47.62;102483.34;5022786;28;20273;-34
2023/04/30 04:32:23;;;;;;;7.57;4.40;;;;;;;18.14;47.97;102487.84;5020345;28;20052;-35
2023/04/30 04:34:50;;;;;;;7.00;4.38;;;;;;;18.14;47.77;102484.31;5021452;28;20077;-34
2023/04/30 04:37:16;;;;;;;6.13;4.25;;;;;;;18.14;48.03;102495.91;5024305;28;20056;-34
2023/04/30 04:39:43;;;;;;;6.10;4.25;;;;;;;18.13;47.64;102483.47;5027716;28;20065;-35
2023/04/30 04:42:10;;;;;;;7.25;4.18;;;;;;;18.14;48.04;102489.69;5021743;28;20111;-35
2023/04/30 04:44:38;;;;;;;6.88;4.68;;;;;;;18.12;47.49;102487.09;5018488;28;20107;-34
2023/04/30 04:47:04;;;;;;;5.57;4.00;;;;;;;18.15;47.47;102488.72;5020740;28;20045;-34
2023/04/30 04:49:31;;;;;;;5.78;4.30;;;;;;;18.15;47.56;102489.56;5020590;28;20041;-36
2023/04/30 04:51:58;;;;;;;7.00;4.20;;;;;;;18.18;47.84;102491.16;5020643;28;20052;-34
2023/04/30 04:54:25;;;;;;;5.85;3.92;;;;;;;18.19;47.46;102485.66;5021175;28;20132;-35
2023/04/30 04:56:51;;;;;;;5.35;4.00;;;;;;;18.20;47.72;102482.00;5023124;28;20050;-36
2023/04/30 04:59:18;;;;;;;6.68;4.18;;;;;;;18.22;47.94;102488.13;5023021;28;20052;-34
2023/04/30 05:01:44;;;;;;;5.97;3.88;;;;;;;18.24;47.68;102485.31;5021470;28;20132;-34
2023/04/30 05:04:12;;;;;;;6.07;3.70;;;;;;;18.27;47.68;102493.16;5022785;28;20054;-34
2023/04/30 05:06:40;;;;;;;5.22;3.63;;;;;;;18.31;47.49;102501.84;5020872;28;20116;-36
2023/04/30 05:09:08;;;;;;;5.65;3.45;;;;;;;18.33;47.72;102499.88;5019696;28;20045;-34
2023/04/30 05:11:35;;;;;;;5.57;3.53;;;;;;;18.35;47.84;102493.44;5017331;28;20288;-34
2023/04/30 05:14:01;;;;;;;4.60;3.28;;;;;;;18.38;47.36;102503.09;5017460;28;20045;-35
2023/04/30 05:16:28;;;;;;;5.07;3.47;;;;;;;18.42;47.51;102504.56;5021192;28;20049;-34
2023/04/30 05:18:55;;;;;;;6.38;3.35;;;;;;;18.45;47.31;102502.53;5015308;28;20056;-34
2023/04/30 05:21:22;;;;;;;5.45;3.50;;;;;;;18.47;47.59;102500.56;5016778;28;20455;-34
2023/04/30 05:23:48;;;;;;;4.30;3.30;;;;;;;18.50;47.13;102504.84;5015645;28;20168;-33
2023/04/30 05:26:15;;;;;;;5.50;3.72;;;;;;;18.53;47.61;102499.22;5019476;28;20049;-34
2023/04/30 05:28:41;;;;;;;4.78;3.60;;;;;;;18.57;47.66;102497.16;5016528;28;20054;-34
2023/04/30 05:31:08;;;;;;;4.45;3.22;;;;;;;18.59;47.37;102501.47;5017690;28;20045;-34
2023/04/30 05:33:35;;;;;;;4.32;2.83;;;;;;;18.62;47.26;102497.69;5016566;28;20049;-34
2023/04/30 05:36:02;;;;;;;4.78;3.42;;;;;;;18.66;47.19;102509.91;5015945;28;20054;-33
2023/04/30 05:38:29;;;;;;;5.97;3.10;;;;;;;18.67;47.47;102517.84;5018001;28;20658;-34
2023/04/30 05:40:56;;;;;;;4.85;3.47;;;;;;;18.71;47.00;102515.81;5017200;28;20056;-34
2023/04/30 05:43:22;;;;;;;4.68;3.40;;;;;;;18.73;47.03;102517.44;5016280;28;20045;-33
2023/04/30 05:45:49;;;;;;;4.45;3.00;;;;;;;18.76;47.21;102520.84;5018226;28;20426;-33
2023/04/30 05:48:15;;;;;;;5.13;3.45;;;;;;;18.79;46.83;102517.91;5019981;28;20056;-34
2023/04/30 05:50:42;;;;;;;5.53;3.97;;;;;;;18.80;47.07;102517.78;5017390;28;20045;-34
2023/04/30 05:53:09;;;;;;;5.30;3.45;;;;;;;18.83;47.00;102514.88;5016774;28;20176;-34
2023/04/30 05:55:35;;;;;;;5.53;3.50;;;;;;;18.85;47.28;102522.81;5018312;28;20436;-34
2023/04/30 05:58:02;;;;;;;4.18;3.40;;;;;;;18.88;46.88;102522.56;5013724;28;20052;-34
2023/04/30 06:00:28;;;;;;;5.50;3.72;;;;;;;18.89;46.82;102527.81;5015957;28;20045;-33
2023/04/30 06:02:55;;;;;;;5.20;3.75;;;;;;;18.90;46.56;102526.88;5012306;28;20046;-34
2023/04/30 06:05:22;;;;;;;5.22;3.53;;;;;;;18.93;46.97;102531.97;5020691;28;20084;-34
2023/04/30 06:07:48;;;;;;;6.28;4.05;;;;;;;18.95;46.27;102534.56;5015819;28;20060;-34
2023/04/30 06:10:15;;;;;;;6.50;4.20;;;;;;;18.97;46.29;102529.91;5014595;28;20111;-34
2023/04/30 06:12:42;;;;;;;5.43;3.80;;;;;;;18.98;46.35;102532.50;5015852;28;20084;-34
2023/04/30 06:15:09;;;;;;;7.10;4.38;;;;;;;19.00;46.56;102535.06;5016810;28;20356;-34
2023/04/30 06:17:35;;;;;;;5.18;3.42;;;;;;;19.02;46.22;102532.28;5017723;28;20084;-33
2023/04/30 06:20:05;;;;;;;8.30;4.43;;;;;;;19.04;46.48;102530.31;5012297;28;20434;-34
2023/04/30 06:22:33;;;;;;;5.97;3.90;;;;;;;19.06;46.41;102529.22;5015651;28;20054;-34
2023/04/30 06:24:59;;;;;;;7.70;4.45;;;;;;;19.07;46.28;102528.25;5015188;28;20049;-35
2023/04/30 06:27:31;;;;;;;6.25;4.63;;;;;;;19.09;46.22;102528.13;5018208;28;20116;-37
2023/04/30 06:29:59;;;;;;;7.80;4.88;;;;;;;19.11;46.36;102528.88;5020762;28;20042;-35
2023/04/30 06:32:26;;;;;;;8.40;5.88;;;;;;;19.13;46.19;102525.06;5018640;28;20146;-35
2023/04/30 06:34:54;;;;;;;10.60;6.20;;;;;;;19.14;46.43;102521.41;5022300;28;20145;-35
2023/04/30 06:37:21;;;;;;;11.15;7.18;;;;;;;19.16;46.33;102529.34;5019535;28;20045;-35
2023/04/30 06:39:48;;;;;;;10.93;6.90;;;;;;;19.17;46.38;102531.91;5024891;28;20052;-35
2023/04/30 06:42:14;;;;;;;12.90;7.60;;;;;;;19.18;46.02;102527.41;5023458;28;20046;-34
2023/04/30 06:44:41;;;;;;;34.17;18.20;;;;;;;19.19;46.49;102535.34;5016473;28;21426;-35
2023/04/30 06:47:07;;;;;;;29.05;16.45;;;;;;;19.20;47.16;102534.38;5018716;28;20060;-36
2023/04/30 06:49:34;;;;;;;31.42;18.10;;;;;;;19.21;47.83;102552.19;5019621;28;20049;-35
2023/04/30 06:52:01;;;;;;;24.38;14.18;;;;;;;19.21;47.17;102540.59;5021543;28;20056;-36
2023/04/30 06:54:28;;;;;;;24.13;14.43;;;;;;;19.20;47.18;102539.75;5021060;28;20230;-35
2023/04/30 06:56:55;;;;;;;33.70;19.58;;;;;;;19.20;47.77;102547.81;5016656;28;20644;-35
2023/04/30 06:59:21;;;;;;;28.20;16.73;;;;;;;19.20;47.35;102550.50;5015471;28;20045;-36
2023/04/30 07:01:48;;;;;;;25.55;14.18;;;;;;;19.20;47.31;102553.19;5018735;28;20392;-37
2023/04/30 07:04:14;;;;;;;27.50;17.13;;;;;;;19.20;47.19;102553.19;5018594;28;20456;-36
2023/04/30 07:06:41;;;;;;;32.45;19.63;;;;;;;19.18;47.93;102555.16;5018255;28;20052;-36
2023/04/30 07:09:08;;;;;;;29.77;18.13;;;;;;;19.20;47.85;102555.00;5019563;28;20111;-36
2023/04/30 07:11:34;;;;;;;27.90;17.60;;;;;;;19.17;47.84;102550.72;5020152;28;20380;-35
2023/04/30 07:14:01;;;;;;;30.30;16.52;;;;;;;19.18;47.89;102555.16;5014035;28;20049;-36
2023/04/30 07:16:27;;;;;;;32.13;18.33;;;;;;;19.18;47.56;102557.84;5015765;28;20050;-36
2023/04/30 07:18:54;;;;;;;28.05;15.88;;;;;;;19.17;48.38;102553.41;5020169;28;20057;-36
2023/04/30 07:21:21;;;;;;;27.13;15.10;;;;;;;19.15;48.32;102551.84;5021413;28;20049;-35
2023/04/30 07:23:50;;;;;;;27.13;14.13;;;;;;;19.13;48.35;102553.78;5023170;28;20099;-37
2023/04/30 07:26:17;;;;;;;25.33;14.77;;;;;;;19.11;48.50;102551.22;5016460;28;20700;-36
2023/04/30 07:28:47;;;;;;;28.83;14.57;;;;;;;19.09;48.08;102553.16;5020532;28;20056;-36
2023/04/30 07:31:14;;;;;;;24.67;13.13;;;;;;;19.07;48.64;102552.44;5022550;28;20076;-36
2023/04/30 07:33:41;;;;;;;22.98;12.68;;;;;;;19.06;48.77;102552.56;5023060;28;20056;-35
2023/04/30 07:36:07;;;;;;;24.88;14.60;;;;;;;19.04;48.44;102547.28;5018253;28;20345;-36
2023/04/30 07:38:34;;;;;;;26.25;14.98;;;;;;;19.02;48.34;102546.56;5019581;28;20053;-36
2023/04/30 07:41:01;;;;;;;27.00;15.73;;;;;;;19.01;48.68;102544.81;5018445;28;20506;-37
2023/04/30 07:43:28;;;;;;;24.52;14.85;;;;;;;19.00;48.14;102545.81;5020134;28;20064;-38
2023/04/30 07:45:57;;;;;;;30.23;15.63;;;;;;;19.00;48.75;102545.81;5015887;28;20049;-36
2023/04/30 07:48:24;;;;;;;28.13;15.23;;;;;;;18.99;48.42;102544.09;5018746;28;20345;-35
2023/04/30 07:50:50;;;;;;;27.10;14.98;;;;;;;18.98;48.40;102537.03;5020806;28;20154;-35
2023/04/30 07:53:37;;;;;;;28.55;14.85;;;;;;;18.97;48.21;102537.97;5018657;28;20135;-35
2023/04/30 07:56:04;;;;;;;25.98;12.88;;;;;;;18.96;48.31;102539.81;5015115;28;20053;-36
2023/04/30 07:58:30;;;;;;;25.10;13.93;;;;;;;18.95;48.93;102535.41;5018791;28;20376;-35
2023/04/30 08:00:57;;;;;;;24.70;13.35;;;;;;;18.94;48.43;102539.09;5018780;28;20037;-35
2023/04/30 08:03:23;;;;;;;33.22;16.52;;;;;;;18.94;48.48;102538.25;5020297;28;20053;-35
2023/04/30 08:05:51;;;;;;;26.73;14.48;;;;;;;18.95;48.51;102538.09;5017154;28;20056;-35
2023/04/30 08:08:18;;;;;;;28.25;14.73;;;;;;;18.94;48.25;102539.09;5020408;28;20046;-36
2023/04/30 08:10:45;;;;;;;29.98;14.15;;;;;;;18.95;47.88;102534.56;5017839;28;20054;-36
2023/04/30 08:13:11;;;;;;;25.30;13.88;;;;;;;18.94;48.17;102547.16;5019222;28;20053;-36
2023/04/30 08:15:38;;;;;;;29.17;13.77;;;;;;;18.93;48.66;102537.34;5013517;28;20068;-34
2023/04/30 08:18:05;;;;;;;27.27;13.88;;;;;;;18.93;48.43;102537.34;5016510;28;20061;-34
2023/04/30 08:20:32;;;;;;;28.80;14.18;;;;;;;18.94;48.27;102535.56;5012981;28;20060;-34
2023/04/30 08:22:58;;;;;;;26.60;13.98;;;;;;;18.93;48.29;102540.03;5018536;28;20076;-35
2023/04/30 08:25:25;;;;;;;33.45;13.93;;;;;;;18.95;48.19;102545.31;5017623;28;20165;-34
2023/04/30 08:27:52;;;;;;;36.83;13.52;;;;;;;18.95;48.33;102543.47;5021265;28;20042;-35
2023/04/30 08:30:18;;;;;;;26.58;12.90;;;;;;;18.95;48.09;102542.63;5020496;28;20310;-34
2023/04/30 08:32:45;;;;;;;32.03;13.38;;;;;;;18.95;48.56;102543.47;5021015;28;20049;-34
2023/04/30 08:35:12;;;;;;;31.48;13.18;;;;;;;18.95;48.23;102542.63;5016915;28;20049;-35
2023/04/30 08:37:38;;;;;;;26.75;12.43;;;;;;;18.95;48.59;102538.09;5021554;28;20374;-35
2023/04/30 08:40:08;;;;;;;22.90;10.88;;;;;;;18.95;48.54;102532.72;5019458;28;20057;-35
2023/04/30 08:42:36;;;;;;;27.98;12.05;;;;;;;18.96;48.39;102533.59;5019933;28;20809;-35
2023/04/30 08:45:03;;;;;;;22.33;11.57;;;;;;;18.96;48.00;102538.97;5021363;28;20061;-34
2023/04/30 08:47:30;;;;;;;23.60;10.57;;;;;;;18.96;47.73;102534.44;5020612;28;20049;-35
2023/04/30 08:49:57;;;;;;;25.30;10.82;;;;;;;18.96;48.05;102545.19;5023685;28;20053;-36
2023/04/30 08:52:25;;;;;;;22.25;10.60;;;;;;;18.97;48.26;102543.34;5021266;28;20054;-35
2023/04/30 08:54:53;;;;;;;19.02;9.88;;;;;;;18.97;48.55;102549.63;5016815;28;20153;-35
2023/04/30 08:57:20;;;;;;;20.35;10.00;;;;;;;18.97;48.54;102540.66;5021894;28;20045;-35
2023/04/30 08:59:47;;;;;;;21.42;9.88;;;;;;;18.97;47.93;102544.25;5016986;28;20613;-35
2023/04/30 09:02:13;;;;;;;17.88;9.00;;;;;;;18.98;48.11;102534.34;5017528;28;20071;-35
2023/04/30 09:04:40;;;;;;;17.13;9.63;;;;;;;19.01;47.92;102536.75;5021204;28;20137;-35
2023/04/30 09:07:07;;;;;;;17.20;8.90;;;;;;;19.04;48.50;102535.69;5020675;28;20045;-35
2023/04/30 09:09:38;;;;;;;16.40;8.65;;;;;;;19.05;48.17;102535.56;5018630;28;20080;-34
2023/04/30 09:12:18;;;;;;;19.50;9.10;;;;;;;19.09;47.86;102530.78;5017122;28;20069;-34
2023/04/30 09:15:03;;;;;;;18.65;9.05;;;;;;;19.10;48.00;102528.00;5018693;28;20061;-35
2023/04/30 09:17:31;;;;;;;16.60;9.70;;;;;;;19.14;48.17;102526.78;5016993;28;20400;-35
2023/04/30 09:20:08;;;;;;;18.23;9.35;;;;;;;19.16;48.00;102527.50;5020343;28;20049;-35
2023/04/30 09:22:37;;;;;;;17.20;8.07;;;;;;;19.18;48.11;102522.88;5015971;28;20469;-36
2023/04/30 09:25:04;;;;;;;21.52;9.00;;;;;;;19.20;48.64;102520.91;5020584;28;20041;-35
2023/04/30 09:27:30;;;;;;;18.10;9.18;;;;;;;19.21;47.84;102519.94;5019479;28;20090;-35
2023/04/30 09:29:57;;;;;;;17.40;8.68;;;;;;;19.24;48.03;102525.09;5021427;28;20362;-35
2023/04/30 09:32:24;;;;;;;21.33;7.50;;;;;;;19.27;48.14;102531.22;5019776;28;20052;-35
2023/04/30 09:34:51;;;;;;;17.55;8.30;;;;;;;19.29;48.50;102519.34;5022808;28;20613;-35
2023/04/30 09:37:17;;;;;;;14.27;7.55;;;;;;;19.33;48.43;102509.19;5016454;28;20064;-35
2023/04/30 09:39:53;;;;;;;17.63;7.55;;;;;;;19.35;48.58;102512.63;5020603;28;20049;-35
2023/04/30 09:42:21;;;;;;;17.95;7.65;;;;;;;19.38;48.73;102523.16;5021425;28;20095;-35
2023/04/30 09:44:48;;;;;;;16.08;7.97;;;;;;;19.39;48.70;102517.66;5018496;28;20143;-36
2023/04/30 09:47:16;;;;;;;17.27;6.93;;;;;;;19.42;49.06;102505.81;5020036;28;20122;-38
2023/04/30 09:49:46;;;;;;;14.30;7.35;;;;;;;19.46;48.22;102507.28;5021986;28;20052;-35
2023/04/30 09:52:15;;;;;;;19.65;8.07;;;;;;;19.49;48.41;102510.53;5019920;28;20464;-35
2023/04/30 09:54:43;;;;;;;15.35;7.38;;;;;;;19.52;48.75;102512.13;5016692;28;20049;-35
2023/04/30 09:57:12;;;;;;;12.70;6.93;;;;;;;19.55;48.37;102502.97;5016903;28;20156;-35
2023/04/30 09:59:43;;;;;;;14.48;7.57;;;;;;;19.57;48.23;102504.53;5022487;28;20144;-35
2023/04/30 10:02:15;;;;;;;16.17;7.55;;;;;;;19.60;48.82;102501.63;5018608;28;20129;-35
2023/04/30 10:04:43;;;;;;;15.40;7.00;;;;;;;19.63;48.18;102495.19;5018971;28;20493;-38
2023/04/30 10:07:19;;;;;;;19.10;6.72;;;;;;;19.64;48.65;102494.19;5019935;28;20069;-39
2023/04/30 10:10:02;;;;;;;11.65;6.47;;;;;;;19.67;48.92;102491.25;5013193;28;20520;-33
2023/04/30 10:12:50;;;;;;;10.90;6.50;;;;;;;19.68;48.91;102488.44;5018252;28;20071;-36
2023/04/30 10:15:22;;;;;;;17.23;7.00;;;;;;;19.70;48.32;102486.50;5013636;28;20131;-39
2023/04/30 10:17:58;;;;;;;16.63;7.13;;;;;;;19.70;48.76;102488.34;5017220;28;20057;-35
2023/04/30 10:20:26;;;;;;;10.73;6.43;;;;;;;19.72;48.74;102487.22;5017777;28;20053;-34
2023/04/30 10:22:53;;;;;;;13.50;6.45;;;;;;;19.73;49.04;102486.22;5016469;28;20041;-36
2023/04/30 10:25:22;;;;;;;13.75;5.85;;;;;;;19.73;48.74;102480.84;5020106;28;20076;-34
2023/04/30 10:27:50;;;;;;;11.07;5.53;;;;;;;19.76;48.31;102484.28;5018109;28;20050;-34
2023/04/30 10:30:17;;;;;;;10.07;5.72;;;;;;;19.77;48.62;102480.59;5019159;28;20049;-34
2023/04/30 10:33:21;;;;;;;11.13;6.00;;;;;;;19.77;48.74;102478.75;5022367;28;20069;-40
2023/04/30 10:35:56;;;;;;;12.48;7.75;;;;;;;19.79;49.05;102486.72;5017204;28;20083;-34
2023/04/30 10:38:25;;;;;;;11.65;7.30;;;;;;;19.80;48.79;102477.66;5022561;28;20100;-35
2023/04/30 10:41:02;;;;;;;10.57;6.50;;;;;;;19.81;48.87;102477.53;5017854;28;20401;-39
2023/04/30 10:43:30;;;;;;;13.55;7.50;;;;;;;19.83;48.51;102467.50;5017004;28;20050;-36
2023/04/30 10:45:57;;;;;;;11.50;7.13;;;;;;;19.85;48.92;102468.22;5024179;28;20432;-36
2023/04/30 10:48:25;;;;;;;11.73;7.15;;;;;;;19.87;48.20;102454.66;5024841;28;20100;-34
2023/04/30 10:50:56;;;;;;;15.10;7.55;;;;;;;19.87;48.46;102455.50;5024430;28;20085;-37
2023/04/30 10:53:26;;;;;;;10.70;6.70;;;;;;;19.89;48.11;102458.06;5025793;28;20497;-34
2023/04/30 10:56:07;;;;;;;11.45;6.72;;;;;;;19.89;48.69;102458.91;5025254;28;20054;-35
2023/04/30 10:58:38;;;;;;;11.90;6.50;;;;;;;19.92;48.58;102452.44;5025009;28;20129;-34
2023/04/30 11:01:16;;;;;;;9.93;6.25;;;;;;;19.92;48.64;102445.22;5020266;28;20045;-34
2023/04/30 11:04:07;;;;;;;11.32;6.82;;;;;;;19.93;48.13;102446.06;5021460;28;20161;-36
2023/04/30 11:06:52;;;;;;;10.65;6.72;;;;;;;19.95;47.69;102450.34;5020395;28;20718;-34
2023/04/30 11:09:23;;;;;;;12.45;7.13;;;;;;;19.99;47.51;102444.72;5018704;28;20148;-34
2023/04/30 11:12:02;;;;;;;11.13;6.53;;;;;;;19.99;47.96;102436.66;5015197;28;20331;-35
2023/04/30 11:14:32;;;;;;;11.45;6.63;;;;;;;20.01;47.62;102440.03;5017280;28;20049;-34
2023/04/30 11:17:01;;;;;;;11.02;6.55;;;;;;;20.01;48.21;102432.81;5016268;28;20143;-38
2023/04/30 11:19:28;;;;;;;12.40;7.53;;;;;;;20.04;47.53;102437.09;5017374;28;20050;-34
2023/04/30 11:22:04;;;;;;;11.30;6.20;;;;;;;20.05;48.03;102430.72;5018283;28;20053;-37
2023/04/30 11:24:49;;;;;;;11.55;6.90;;;;;;;20.06;47.68;102427.94;5018023;28;20050;-36